createdAt,value
2022-11-04T00:01:20.931Z,12.19
2022-11-04T00:03:49.858Z,12.03
2022-11-04T00:06:18.733Z,12.07
2022-11-04T00:08:52.540Z,11.91
2022-11-04T00:11:40.222Z,11.70
2022-11-04T00:14:10.785Z,11.70
2022-11-04T00:16:58.412Z,11.71
2022-11-04T00:19:27.853Z,11.57
2022-11-04T00:22:15.364Z,11.47
2022-11-04T00:24:44.581Z,11.04
2022-11-04T00:27:36.697Z,10.78
2022-11-04T00:30:09.745Z,10.66
2022-11-04T00:32:57.053Z,10.27
2022-11-04T00:35:26.287Z,10.29
2022-11-04T00:37:55.244Z,10.13
2022-11-04T00:40:24.415Z,10.06
2022-11-04T00:42:53.420Z,10.35
2022-11-04T00:45:22.471Z,10.62
2022-11-04T00:47:51.398Z,10.73
2022-11-04T00:50:20.752Z,10.60
2022-11-04T00:52:49.601Z,10.90
2022-11-04T00:55:18.737Z,10.87
2022-11-04T00:57:47.581Z,10.95
2022-11-04T01:00:17.291Z,11.05
2022-11-04T01:02:46.187Z,10.91
2022-11-04T01:05:15.662Z,10.90
2022-11-04T01:07:44.624Z,10.79
2022-11-04T01:10:14.655Z,10.78
2022-11-04T01:12:43.596Z,10.78
2022-11-04T01:15:12.679Z,10.77
2022-11-04T01:17:41.976Z,10.74
2022-11-04T01:20:11.887Z,10.89
2022-11-04T01:22:40.726Z,11.02
2022-11-04T01:25:11.019Z,10.96
2022-11-04T01:27:40.266Z,10.98
2022-11-04T01:30:10.184Z,10.93
2022-11-04T01:32:39.670Z,10.93
2022-11-04T01:35:09.108Z,10.87
2022-11-04T01:37:38.119Z,10.98
2022-11-04T01:40:07.533Z,10.95
2022-11-04T01:42:36.603Z,10.86
2022-11-04T01:45:05.796Z,10.94
2022-11-04T01:47:59.687Z,10.94
2022-11-04T01:50:31.669Z,11.08
2022-11-04T01:53:16.759Z,11.30
2022-11-04T01:55:56.225Z,11.27
2022-11-04T01:58:31.975Z,11.34
2022-11-04T02:01:01.275Z,11.27
2022-11-04T02:03:38.213Z,11.42
2022-11-04T02:06:09.032Z,11.62
2022-11-04T02:08:40.773Z,11.70
2022-11-04T02:11:09.940Z,11.44
2022-11-04T02:13:39.662Z,11.73
2022-11-04T02:16:33.693Z,12.00
2022-11-04T02:19:20.661Z,12.04
2022-11-04T02:22:08.247Z,12.36
2022-11-04T02:25:05.352Z,12.70
2022-11-04T02:27:49.296Z,13.03
2022-11-04T02:30:23.263Z,13.46
2022-11-04T02:33:07.811Z,13.94
2022-11-04T02:35:51.919Z,14.23
2022-11-04T02:38:46.062Z,14.67
2022-11-04T02:41:31.106Z,14.84
2022-11-04T02:44:30.548Z,15.24
2022-11-04T02:47:18.751Z,15.42
2022-11-04T02:49:59.564Z,15.32
2022-11-04T02:52:50.290Z,15.46
2022-11-04T02:55:43.475Z,15.48
2022-11-04T02:58:23.300Z,15.86
2022-11-04T03:00:54.142Z,16.24
2022-11-04T03:03:46.990Z,16.01
2022-11-04T03:06:20.625Z,16.14
2022-11-04T03:08:54.057Z,16.15
2022-11-04T03:11:26.100Z,15.99
2022-11-04T03:14:00.937Z,16.04
2022-11-04T03:16:53.778Z,16.26
2022-11-04T03:19:54.919Z,16.85
2022-11-04T03:22:34.645Z,17.07
2022-11-04T03:25:06.685Z,17.39
2022-11-04T03:28:03.727Z,17.60
2022-11-04T03:30:46.897Z,17.98
2022-11-04T03:33:28.537Z,17.84
2022-11-04T03:35:57.888Z,17.91
2022-11-04T03:38:26.785Z,17.79
2022-11-04T03:40:56.139Z,17.99
2022-11-04T03:43:28.786Z,18.23
2022-11-04T03:45:58.265Z,17.95
2022-11-04T03:48:27.486Z,17.90
2022-11-04T03:50:56.630Z,17.74
2022-11-04T03:53:28.489Z,17.63
2022-11-04T03:56:09.977Z,17.74
2022-11-04T03:58:59.549Z,17.68
2022-11-04T04:01:49.826Z,17.45
2022-11-04T04:04:24.705Z,17.60
2022-11-04T04:07:00.510Z,17.50
2022-11-04T04:09:44.215Z,17.27
2022-11-04T04:12:36.600Z,17.25
2022-11-04T04:15:29.703Z,17.15
2022-11-04T04:18:07.050Z,17.02
2022-11-04T04:20:40.412Z,16.92
2022-11-04T04:23:41.226Z,17.04
2022-11-04T04:26:30.661Z,17.10
2022-11-04T04:29:04.042Z,17.14
2022-11-04T04:31:53.895Z,17.02
2022-11-04T04:34:34.775Z,17.02
2022-11-04T04:37:06.803Z,17.09
2022-11-04T04:40:05.144Z,17.04
2022-11-04T04:42:54.597Z,16.99
2022-11-04T04:45:44.632Z,17.17
2022-11-04T04:48:14.813Z,17.26
2022-11-04T04:50:49.489Z,17.22
2022-11-04T04:53:18.691Z,17.08
2022-11-04T04:55:47.599Z,17.32
2022-11-04T04:58:16.759Z,17.46
2022-11-04T05:00:45.799Z,17.39
2022-11-04T05:03:14.903Z,17.31
2022-11-04T05:05:43.710Z,17.26
2022-11-04T05:08:13.219Z,17.37
2022-11-04T05:10:42.535Z,17.73
2022-11-04T05:13:31.126Z,18.05
2022-11-04T05:16:09.809Z,18.44
2022-11-04T05:18:40.297Z,18.65
2022-11-04T05:21:13.018Z,19.00
2022-11-04T05:23:42.332Z,19.36
2022-11-04T05:26:11.339Z,19.50
2022-11-04T05:28:40.402Z,19.62
2022-11-04T05:31:09.285Z,20.02
2022-11-04T05:33:38.411Z,20.19
2022-11-04T05:36:15.063Z,20.16
2022-11-04T05:38:45.644Z,19.95
2022-11-04T05:41:26.540Z,20.25
2022-11-04T05:43:58.078Z,21.00
2022-11-04T05:46:27.994Z,21.02
2022-11-04T05:48:57.523Z,21.33
2022-11-04T05:51:28.953Z,21.71
2022-11-04T05:53:58.435Z,21.29
2022-11-04T05:56:27.361Z,21.67
2022-11-04T05:58:56.563Z,22.18
2022-11-04T06:01:32.740Z,22.04
2022-11-04T06:04:03.879Z,22.12
2022-11-04T06:06:35.948Z,22.36
2022-11-04T06:09:06.018Z,22.14
2022-11-04T06:11:36.359Z,23.35
2022-11-04T06:14:05.763Z,23.41
2022-11-04T06:16:34.626Z,24.03
2022-11-04T06:19:07.695Z,24.12
2022-11-04T06:21:39.969Z,22.60
2022-11-04T06:24:09.605Z,23.53
2022-11-04T06:26:40.873Z,24.38
2022-11-04T06:29:10.751Z,24.77
2022-11-04T06:31:40.209Z,25.38
2022-11-04T06:34:10.058Z,24.87
2022-11-04T06:36:38.917Z,24.42
2022-11-04T06:39:07.964Z,23.77
2022-11-04T06:41:36.920Z,24.24
2022-11-04T06:44:06.032Z,24.19
2022-11-04T06:46:41.018Z,24.92
2022-11-04T06:49:21.734Z,25.17
2022-11-04T06:51:51.797Z,25.16
2022-11-04T06:54:20.677Z,25.19
2022-11-04T06:56:50.022Z,25.25
2022-11-04T06:59:21.658Z,24.55
2022-11-04T07:01:52.875Z,24.01
2022-11-04T07:04:22.173Z,24.34
2022-11-04T07:06:51.184Z,24.48
2022-11-04T07:09:20.674Z,24.64
2022-11-04T07:11:49.568Z,24.31
2022-11-04T07:14:18.703Z,24.26
2022-11-04T07:16:50.986Z,23.89
2022-11-04T07:19:20.393Z,23.35
2022-11-04T07:21:49.244Z,22.80
2022-11-04T07:24:18.568Z,23.12
2022-11-04T07:26:47.490Z,23.30
2022-11-04T07:29:16.801Z,23.06
2022-11-04T07:31:45.781Z,23.58
2022-11-04T07:34:14.858Z,23.34
2022-11-04T07:36:43.713Z,23.72
2022-11-04T07:39:12.919Z,23.69
2022-11-04T07:41:41.758Z,23.92
2022-11-04T07:44:14.226Z,24.19
2022-11-04T07:46:43.783Z,24.49
2022-11-04T07:49:12.734Z,24.41
2022-11-04T07:51:41.878Z,24.65
2022-11-04T07:54:10.801Z,23.86
2022-11-04T07:56:39.825Z,23.25
2022-11-04T07:59:08.717Z,24.28
2022-11-04T08:01:38.127Z,24.29
2022-11-04T08:04:08.536Z,23.49
2022-11-04T08:06:37.670Z,22.80
2022-11-04T08:09:06.724Z,22.04
2022-11-04T08:11:36.169Z,21.54
2022-11-04T08:14:05.756Z,21.11
2022-11-04T08:16:34.804Z,20.91
2022-11-04T08:19:03.775Z,20.60
2022-11-04T08:21:34.789Z,20.35
2022-11-04T08:24:05.348Z,20.21
2022-11-04T08:26:34.377Z,20.21
2022-11-04T08:29:09.101Z,20.05
2022-11-04T08:31:38.390Z,20.00
2022-11-04T08:34:09.403Z,19.98
2022-11-04T08:36:42.079Z,19.72
2022-11-04T08:39:12.359Z,19.61
2022-11-04T08:41:46.278Z,19.59
2022-11-04T08:44:15.660Z,19.53
2022-11-04T08:46:46.379Z,19.44
2022-11-04T08:49:20.639Z,19.47
2022-11-04T08:51:58.176Z,20.73
2022-11-04T08:54:28.761Z,21.63
2022-11-04T08:56:57.890Z,22.48
2022-11-04T08:59:26.729Z,23.01
2022-11-04T09:01:56.052Z,22.20
2022-11-04T09:04:25.024Z,22.13
2022-11-04T09:06:57.273Z,21.89
2022-11-04T09:09:27.758Z,21.44
2022-11-04T09:11:56.761Z,21.29
2022-11-04T09:14:25.715Z,21.57
2022-11-04T09:16:55.132Z,21.57
2022-11-04T09:19:24.218Z,21.94
2022-11-04T09:21:53.698Z,21.89
2022-11-04T09:24:22.566Z,21.40
2022-11-04T09:26:51.704Z,21.45
2022-11-04T09:29:20.614Z,21.57
2022-11-04T09:31:51.174Z,21.57
2022-11-04T09:34:20.744Z,21.67
2022-11-04T09:36:49.661Z,21.63
2022-11-04T09:39:18.713Z,21.54
2022-11-04T09:42:18.843Z,21.70
2022-11-04T09:45:22.452Z,21.22
2022-11-04T09:47:57.901Z,21.54
2022-11-04T09:50:31.024Z,21.67
2022-11-04T09:53:15.630Z,21.48
2022-11-04T09:55:56.715Z,20.79
2022-11-04T09:58:26.278Z,20.80
2022-11-04T10:01:16.060Z,20.69
2022-11-04T10:04:00.587Z,21.19
2022-11-04T10:06:56.911Z,21.36
2022-11-04T10:09:25.993Z,21.46
2022-11-04T10:12:15.099Z,21.45
2022-11-04T10:14:56.778Z,21.53
2022-11-04T10:17:47.013Z,21.63
2022-11-04T10:20:33.011Z,21.87
2022-11-04T10:23:33.065Z,21.38
2022-11-04T10:26:14.940Z,21.93
2022-11-04T10:28:50.387Z,21.57
2022-11-04T10:31:20.605Z,21.61
2022-11-04T10:33:59.179Z,21.14
2022-11-04T10:36:29.179Z,21.31
2022-11-04T10:38:59.947Z,20.34
2022-11-04T10:41:37.177Z,20.35
2022-11-04T10:44:10.408Z,20.09
2022-11-04T10:47:17.901Z,19.36
2022-11-04T10:50:31.440Z,18.71
2022-11-04T10:53:20.457Z,18.17
2022-11-04T10:55:56.159Z,17.90
2022-11-04T10:58:29.747Z,17.75
2022-11-04T11:01:00.212Z,17.86
2022-11-04T11:03:35.117Z,17.62
2022-11-04T11:06:32.552Z,17.24
2022-11-04T11:09:16.206Z,17.08
2022-11-04T11:11:49.594Z,16.88
2022-11-04T11:14:30.724Z,16.79
2022-11-04T11:17:19.877Z,16.65
2022-11-04T11:20:01.201Z,16.32
2022-11-04T11:22:45.497Z,16.21
2022-11-04T11:25:29.089Z,15.98
2022-11-04T11:28:03.961Z,15.81
2022-11-04T11:30:45.508Z,15.63
2022-11-04T11:33:28.887Z,15.50
2022-11-04T11:36:31.950Z,15.27
2022-11-04T11:39:17.918Z,15.35
2022-11-04T11:42:08.280Z,15.00
2022-11-04T11:44:50.783Z,14.83
2022-11-04T11:47:33.059Z,14.76
2022-11-04T11:50:35.365Z,14.58
2022-11-04T11:53:20.999Z,14.33
2022-11-04T11:56:10.483Z,14.42
2022-11-04T12:01:43.607Z,14.03
2022-11-04T12:10:49.609Z,13.92
2022-11-04T12:13:40.723Z,13.91
2022-11-04T12:16:24.623Z,13.79
2022-11-04T12:18:56.796Z,13.67
2022-11-04T12:21:34.865Z,13.64
2022-11-04T12:24:55.190Z,13.45
2022-11-04T12:27:59.490Z,13.22
2022-11-04T12:30:38.489Z,12.96
2022-11-04T12:33:48.847Z,12.87
2022-11-04T12:36:43.595Z,12.62
2022-11-04T12:39:30.264Z,12.38
2022-11-04T12:45:19.299Z,12.07
2022-11-04T12:47:49.253Z,12.01
2022-11-04T12:50:31.811Z,11.85
2022-11-04T12:53:42.221Z,11.83
2022-11-04T12:56:13.983Z,11.76
2022-11-04T12:58:47.359Z,11.77
2022-11-04T13:01:32.604Z,11.70
2022-11-04T13:04:22.445Z,11.84
2022-11-04T13:07:06.136Z,11.88
2022-11-04T13:10:02.053Z,11.88
2022-11-04T13:12:44.086Z,11.77
2022-11-04T13:15:21.278Z,11.80
2022-11-04T13:17:56.218Z,11.59
2022-11-04T13:20:44.763Z,11.52
2022-11-04T13:23:23.801Z,11.68
2022-11-04T13:25:54.838Z,11.51
2022-11-04T13:28:24.953Z,11.39
2022-11-04T13:31:17.364Z,11.38
2022-11-04T13:34:23.187Z,11.41
2022-11-04T13:37:31.338Z,11.39
2022-11-04T13:40:28.795Z,11.10
2022-11-04T13:43:33.762Z,11.31
2022-11-04T13:46:03.353Z,11.03
2022-11-04T13:48:36.095Z,10.97
2022-11-04T13:51:14.108Z,10.91
2022-11-04T13:53:44.980Z,11.02
2022-11-04T13:56:40.518Z,10.95
2022-11-04T13:59:18.677Z,10.96
2022-11-04T14:01:48.265Z,10.65
2022-11-04T14:04:28.937Z,11.27
2022-11-04T14:06:58.036Z,11.21
2022-11-04T14:09:52.243Z,11.01
2022-11-04T14:12:34.318Z,11.19
2022-11-04T14:15:12.277Z,11.17
2022-11-04T14:17:42.858Z,11.21
2022-11-04T14:20:23.852Z,11.00
2022-11-04T14:23:01.621Z,11.14
2022-11-04T14:25:37.098Z,11.06
2022-11-04T14:28:12.174Z,11.06
2022-11-04T14:30:53.061Z,11.06
2022-11-04T14:33:42.974Z,11.10
2022-11-04T14:36:25.063Z,10.97
2022-11-04T14:39:06.660Z,10.99
2022-11-04T14:41:36.893Z,11.04
2022-11-04T14:44:19.043Z,11.04
2022-11-04T14:46:51.915Z,11.05
2022-11-04T14:49:40.774Z,10.99
2022-11-04T14:52:29.346Z,11.11
2022-11-04T14:55:06.238Z,11.13
2022-11-04T14:57:46.838Z,11.17
2022-11-04T15:00:23.142Z,11.20
2022-11-04T15:06:12.956Z,11.09
2022-11-04T15:08:42.084Z,11.18
2022-11-04T15:11:40.895Z,10.96
2022-11-04T15:14:18.961Z,11.18
2022-11-04T15:16:52.862Z,11.11
2022-11-04T15:19:30.211Z,11.14
2022-11-04T15:22:04.182Z,11.13
2022-11-04T15:24:34.137Z,11.31
2022-11-04T15:27:06.956Z,11.33
2022-11-04T15:29:36.228Z,11.17
2022-11-04T15:32:06.864Z,11.15
2022-11-04T15:34:37.864Z,11.14
2022-11-04T15:37:09.246Z,11.05
2022-11-04T15:39:44.693Z,10.96
2022-11-04T15:42:40.918Z,10.96
2022-11-04T15:45:52.276Z,11.00
2022-11-04T15:48:38.760Z,10.86
2022-11-04T15:51:14.789Z,10.91
2022-11-04T15:54:01.025Z,10.88
2022-11-04T15:56:34.787Z,10.87
2022-11-04T15:59:09.784Z,10.85
2022-11-04T16:01:49.837Z,10.83
2022-11-04T16:04:22.343Z,10.69
2022-11-04T16:07:12.281Z,10.83
2022-11-04T16:09:56.952Z,10.78
2022-11-04T16:12:30.395Z,11.09
2022-11-04T16:15:01.212Z,11.12
2022-11-04T16:17:31.545Z,11.21
2022-11-04T16:20:06.940Z,11.29
2022-11-04T16:22:40.099Z,11.19
2022-11-04T16:25:21.138Z,11.06
2022-11-04T16:27:51.018Z,11.07
2022-11-04T16:30:22.845Z,10.77
2022-11-04T16:32:55.418Z,10.98
2022-11-04T16:35:29.669Z,10.95
2022-11-04T16:38:02.670Z,10.86
2022-11-04T16:40:34.685Z,10.70
2022-11-04T16:43:04.035Z,10.89
2022-11-04T16:45:36.006Z,10.79
2022-11-04T16:48:06.249Z,10.94
2022-11-04T16:50:35.211Z,10.76
2022-11-04T16:53:04.703Z,10.70
2022-11-04T16:55:33.899Z,10.67
2022-11-04T16:58:06.045Z,10.57
2022-11-04T17:00:37.250Z,10.59
2022-11-04T17:03:24.548Z,10.71
2022-11-04T17:05:57.375Z,10.72
2022-11-04T17:08:27.758Z,10.84
2022-11-04T17:10:56.957Z,10.73
2022-11-04T17:13:26.249Z,10.89
2022-11-04T17:15:55.523Z,10.88
2022-11-04T17:18:24.504Z,10.84
2022-11-04T17:20:56.532Z,10.74
2022-11-04T17:23:25.740Z,10.75
2022-11-04T17:25:54.663Z,10.91
2022-11-04T17:28:24.216Z,10.85
2022-11-04T17:30:53.155Z,10.81
2022-11-04T17:33:23.618Z,10.70
2022-11-04T17:35:53.163Z,10.93
2022-11-04T17:38:22.792Z,10.80
2022-11-04T17:41:10.278Z,10.68
2022-11-04T17:43:57.872Z,10.56
2022-11-04T17:46:36.529Z,10.54
2022-11-04T17:49:14.920Z,10.44
2022-11-04T17:51:47.277Z,10.47
2022-11-04T17:54:17.162Z,10.40
2022-11-04T17:56:46.376Z,10.45
2022-11-04T17:59:16.848Z,10.11
2022-11-04T18:01:47.197Z,10.31
2022-11-04T18:04:19.934Z,10.22
2022-11-04T18:06:50.039Z,10.17
2022-11-04T18:09:20.371Z,10.17
2022-11-04T18:12:07.483Z,10.15
2022-11-04T18:14:36.999Z,10.14
2022-11-04T18:17:06.615Z,10.22
2022-11-04T18:19:36.424Z,10.10
2022-11-04T18:22:09.387Z,10.06
2022-11-04T18:24:38.790Z,10.12
2022-11-04T18:27:07.855Z,10.15
2022-11-04T18:29:37.034Z,10.05
2022-11-04T18:32:06.418Z,10.04
2022-11-04T18:34:35.819Z,10.16
2022-11-04T18:37:04.884Z,10.42
2022-11-04T18:39:33.950Z,10.52
2022-11-04T18:42:02.852Z,10.63
2022-11-04T18:44:32.066Z,10.46
2022-11-04T18:47:00.941Z,10.47
2022-11-04T18:49:30.379Z,10.64
2022-11-04T18:52:01.301Z,10.56
2022-11-04T18:54:30.498Z,10.60
2022-11-04T18:56:59.340Z,10.83
2022-11-04T18:59:28.641Z,10.82
2022-11-04T19:01:57.654Z,10.59
2022-11-04T19:04:26.898Z,10.68
2022-11-04T19:06:55.837Z,10.88
2022-11-04T19:12:32.422Z,10.81
2022-11-04T19:15:01.738Z,10.68
2022-11-04T19:17:31.310Z,10.57
2022-11-04T19:20:04.253Z,10.48
2022-11-04T19:22:36.162Z,10.46
2022-11-04T19:25:05.724Z,10.46
2022-11-04T19:27:34.840Z,10.39
2022-11-04T19:30:03.868Z,10.39
2022-11-04T19:32:33.433Z,10.35
2022-11-04T19:35:02.348Z,10.42
2022-11-04T19:37:32.357Z,10.42
2022-11-04T19:40:01.502Z,10.23
2022-11-04T19:42:48.678Z,10.38
2022-11-04T19:45:18.194Z,10.35
2022-11-04T19:47:47.034Z,10.48
2022-11-04T19:50:17.058Z,10.48
2022-11-04T19:52:46.189Z,10.41
2022-11-04T19:55:15.103Z,10.23
2022-11-04T19:57:44.232Z,10.35
2022-11-04T20:00:14.315Z,10.42
2022-11-04T20:02:44.098Z,10.28
2022-11-04T20:05:12.998Z,10.25
2022-11-04T20:07:41.884Z,10.30
2022-11-04T20:10:11.276Z,10.32
2022-11-04T20:12:58.848Z,10.44
2022-11-04T20:15:29.498Z,10.41
2022-11-04T20:17:58.302Z,10.32
2022-11-04T20:20:27.646Z,10.38
2022-11-04T20:22:56.871Z,10.40
2022-11-04T20:25:25.765Z,10.37
2022-11-04T20:27:54.986Z,10.26
2022-11-04T20:30:23.888Z,10.36
2022-11-04T20:32:52.954Z,10.40
2022-11-04T20:35:21.934Z,10.52
2022-11-04T20:37:51.287Z,10.82
2022-11-04T20:40:20.236Z,11.03
2022-11-04T20:42:49.652Z,11.06
2022-11-04T20:45:22.422Z,11.04
2022-11-04T20:47:53.102Z,10.88
2022-11-04T20:50:21.981Z,10.82
2022-11-04T20:52:50.900Z,10.74
2022-11-04T20:55:19.948Z,10.71
2022-11-04T20:57:48.860Z,10.73
2022-11-04T21:00:18.025Z,10.73
2022-11-04T21:02:46.959Z,10.65
2022-11-04T21:05:16.194Z,10.67
2022-11-04T21:07:45.104Z,10.62
2022-11-04T21:10:14.280Z,10.62
2022-11-04T21:12:43.209Z,10.77
2022-11-04T21:15:32.496Z,10.58
2022-11-04T21:18:01.518Z,10.69
2022-11-04T21:20:30.339Z,10.73
2022-11-04T21:22:59.596Z,10.71
2022-11-04T21:25:28.536Z,10.88
2022-11-04T21:27:57.511Z,10.98
2022-11-04T21:30:31.927Z,10.94
2022-11-04T21:33:02.930Z,11.06
2022-11-04T21:35:32.155Z,11.11
2022-11-04T21:38:01.191Z,11.15
2022-11-04T21:40:30.690Z,11.15
2022-11-04T21:43:00.001Z,11.07
2022-11-04T21:45:28.886Z,11.27
2022-11-04T21:47:57.934Z,11.06
2022-11-04T21:50:26.924Z,11.03
2022-11-04T21:52:56.212Z,10.83
2022-11-04T21:55:25.419Z,10.91
2022-11-04T21:57:54.551Z,10.92
2022-11-04T22:00:23.499Z,10.78
2022-11-04T22:02:52.681Z,10.44
2022-11-04T22:05:22.139Z,10.56
2022-11-04T22:08:09.228Z,10.38
2022-11-04T22:10:38.853Z,10.47
2022-11-04T22:13:07.844Z,10.38
2022-11-04T22:15:55.461Z,10.35
2022-11-04T22:18:24.522Z,10.18
2022-11-04T22:20:53.785Z,10.17
2022-11-04T22:23:24.289Z,10.17
2022-11-04T22:25:53.566Z,10.12
2022-11-04T22:28:22.416Z,10.25
2022-11-04T22:30:51.620Z,10.04
2022-11-04T22:33:20.497Z,10.33
2022-11-04T22:35:49.507Z,10.40
2022-11-04T22:38:18.534Z,10.45
2022-11-04T22:40:55.977Z,10.52
2022-11-04T22:43:26.167Z,10.44
2022-11-04T22:45:57.406Z,10.38
2022-11-04T22:48:26.974Z,10.28
2022-11-04T22:50:58.363Z,10.30
2022-11-04T22:53:27.798Z,10.11
2022-11-04T22:55:59.668Z,9.97
2022-11-04T22:58:29.706Z,9.92
2022-11-04T23:01:01.477Z,9.99
2022-11-04T23:03:31.710Z,9.98
2022-11-04T23:06:03.040Z,9.91
2022-11-04T23:08:34.398Z,9.62
2022-11-04T23:11:25.589Z,9.93
2022-11-04T23:14:20.175Z,9.97
2022-11-04T23:17:10.084Z,9.98
2022-11-04T23:19:40.450Z,9.90
2022-11-04T23:22:28.702Z,9.94
2022-11-04T23:25:12.982Z,9.83
2022-11-04T23:28:11.792Z,9.90
2022-11-04T23:30:46.854Z,9.93
2022-11-04T23:33:16.560Z,9.84
2022-11-04T23:36:08.248Z,9.94
2022-11-04T23:38:37.587Z,9.84
2022-11-04T23:41:26.525Z,9.72
2022-11-04T23:43:55.809Z,9.84
2022-11-04T23:46:43.712Z,10.08
2022-11-04T23:49:31.355Z,10.37
2022-11-04T23:52:19.071Z,10.45
2022-11-04T23:55:06.705Z,10.86
2022-11-04T23:57:54.828Z,10.95
